createdAt,value
2023-03-08T01:30:27.316Z,2.05
2023-03-08T01:40:37.667Z,1.67
2023-03-08T01:50:50.893Z,2.72
2023-03-08T02:01:13.598Z,1.88
2023-03-08T02:11:31.097Z,3.08
2023-03-08T02:21:48.654Z,2.75
2023-03-08T02:32:04.383Z,3.53
2023-03-08T02:42:18.772Z,4.70
2023-03-08T02:52:39.117Z,2.63
2023-03-08T03:02:54.674Z,4.47
2023-03-08T03:13:08.484Z,2.65
2023-03-08T03:23:25.610Z,2.35
2023-03-08T03:33:34.209Z,2.22
2023-03-08T03:44:00.720Z,3.08
2023-03-08T03:54:07.549Z,2.28
2023-03-08T04:04:23.442Z,2.28
2023-03-08T04:14:40.484Z,1.30
2023-03-08T04:24:48.961Z,1.92
2023-03-08T04:34:59.600Z,1.92
2023-03-08T04:45:12.018Z,1.70
2023-03-08T04:55:22.981Z,1.92
2023-03-08T05:05:41.890Z,1.67
2023-03-08T05:15:53.742Z,1.45
2023-03-08T05:26:09.191Z,1.58
2023-03-08T05:36:16.627Z,2.20
2023-03-08T05:46:39.215Z,1.58
2023-03-08T05:57:08.393Z,2.50
2023-03-08T06:07:29.936Z,1.63
2023-03-08T06:17:50.635Z,1.75
2023-03-08T06:28:09.581Z,1.48
2023-03-08T06:38:20.291Z,1.25
2023-03-08T06:48:33.279Z,2.55
2023-03-08T06:58:44.061Z,2.30
2023-03-08T07:08:51.584Z,1.50
2023-03-08T07:19:00.229Z,2.05
2023-03-08T07:29:11.136Z,1.77
2023-03-08T07:39:41.050Z,2.00
2023-03-08T07:49:48.459Z,1.23
2023-03-08T08:00:00.452Z,2.40
2023-03-08T08:10:12.763Z,2.38
2023-03-08T08:20:41.813Z,2.88
2023-03-08T08:31:05.980Z,2.30
2023-03-08T08:41:26.705Z,3.27
2023-03-08T08:51:42.049Z,2.10
2023-03-08T09:01:48.036Z,2.10
2023-03-08T09:11:55.422Z,1.58
2023-03-08T09:22:06.580Z,3.08
2023-03-08T09:32:24.997Z,2.78
2023-03-08T09:42:51.574Z,3.17
2023-03-08T09:53:29.686Z,2.42
2023-03-08T10:04:10.480Z,2.40
2023-03-08T10:14:33.920Z,3.53
2023-03-08T10:25:11.727Z,1.95
2023-03-08T10:35:17.568Z,2.70
2023-03-08T10:45:24.894Z,3.35
2023-03-08T10:55:39.635Z,2.63
2023-03-08T11:06:25.470Z,3.33
2023-03-08T11:16:54.177Z,2.63
2023-03-08T11:27:30.980Z,4.32
2023-03-08T11:48:09.351Z,2.80
2023-03-08T11:58:34.341Z,3.17
2023-03-08T12:08:55.817Z,3.45
2023-03-08T12:19:31.402Z,5.25
2023-03-08T12:30:15.671Z,5.00
2023-03-08T12:40:48.144Z,4.85
2023-03-08T12:51:18.641Z,5.25
2023-03-08T13:01:40.051Z,4.47
2023-03-08T13:12:29.592Z,4.43
2023-03-08T13:23:01.472Z,4.53
2023-03-08T13:33:22.919Z,4.68
2023-03-08T13:43:37.871Z,4.82
2023-03-08T13:53:44.830Z,5.40
2023-03-08T14:03:53.665Z,6.30
2023-03-08T14:14:00.163Z,4.97
2023-03-08T14:24:39.335Z,6.95
2023-03-08T14:34:51.949Z,3.15
